Flight Track Log - Related Links

Times and Time Zones

All times are in EDT time to prevent confusion due to time zone crossing. See the N552SR flight status page for this flight to view local times or setup timezone preferences in your user account.

Time Position Orientation Groundspeed Altitude Reporting Facility
EDT Latitude Longitude Course Direction KTS MPH feet Rate Location/Type
Sun 07:15:59 PM 43.0764 -76.1328 174° South 136 157 2,800  Level Boston Center
Sun 07:17:00 PM 43.0464 -76.0914 135° Southeast 166 191 3,800 934 Climbing Boston Center
Sun 07:18:01 PM 43.0183 -76.0583 139° Southeast 160 184 4,700 893 Climbing Boston Center
Sun 07:19:01 PM 42.9822 -76.0081 134° Southeast 165 190 5,600 793 Climbing Boston Center
Sun 07:20:02 PM 42.9483 -75.9633 136° Southeast 172 198 6,300 590 Climbing Boston Center
Sun 07:21:03 PM 42.9206 -75.9136 127° Southeast 173 199 6,800 347 Climbing Boston Center
Sun 07:22:03 PM 42.8808 -75.8519 131° Southeast 207 238 7,000 99 Climbing Boston Center
Sun 07:23:04 PM 42.8447 -75.8017 134° Southeast 190 219 7,000  Level Boston Center
Sun 07:24:05 PM 42.7986 -75.7342 133° Southeast 193 222 7,000  Level Boston Center
Sun 07:25:05 PM 42.7628 -75.6811 133° Southeast 198 228 7,000  Level Boston Center
Sun 07:26:18 PM 42.7269 -75.6200 129° Southeast 243 280 7,000  Level Boston Center
Sun 07:27:18 PM 42.6864 -75.5756 141° Southeast 208 239 7,000  Level Boston Center
Sun 07:28:18 PM 42.6406 -75.5056 132° Southeast 202 232 7,000  Level Boston Center
Sun 07:29:19 PM 42.6022 -75.4500 133° Southeast 202 232 7,000  Level Boston Center
Sun 07:30:18 PM 42.5622 -75.3917 133° Southeast 202 232 7,000  Level Boston Center
Sun 07:31:30 PM 42.5242 -75.3333 132° Southeast 207 238 7,000  Level Boston Center
Sun 07:32:30 PM 42.4775 -75.2722 136° Southeast 202 232 7,000  Level Boston Center
Sun 07:33:30 PM 42.4497 -75.2231 127° Southeast 202 232 7,000  Level Boston Center
Sun 07:34:30 PM 42.4200 -75.1514 119° Southeast 207 238 7,000  Level Boston Center
Sun 07:35:30 PM 42.3947 -75.0744 114° Southeast 192 221 7,000  Level Boston Center
Sun 07:36:30 PM 42.3733 -75.0061 113° Southeast 187 215 7,000  Level Boston Center
Sun 07:37:30 PM 42.3519 -74.9406 114° Southeast 187 215 7,000  Level Boston Center
Sun 07:38:42 PM 42.3264 -74.8722 117° Southeast 187 215 7,000  Level Boston Center
Sun 07:39:42 PM 42.2989 -74.7925 115° Southeast 192 221 7,000  Level Boston Center
Sun 07:40:42 PM 42.2753 -74.7214 114° Southeast 199 229 7,000  Level Boston Center
Sun 07:41:42 PM 42.2517 -74.6503 114° Southeast 199 229 7,000  Level Boston Center
Sun 07:42:42 PM 42.2239 -74.5850 120° Southeast 199 229 7,000  Level Boston Center
Sun 07:43:42 PM 42.1981 -74.5194 118° Southeast 199 229 7,000  Level Boston Center
Sun 07:44:42 PM 42.1681 -74.4486 120° Southeast 206 237 7,000  Level Boston Center
Sun 07:45:42 PM 42.1336 -74.3831 125° Southeast 211 243 7,000  Level Boston Center
Sun 07:46:42 PM 42.1056 -74.3150 119° Southeast 211 243 7,000  Level Boston Center
Sun 07:47:42 PM 42.0753 -74.2497 122° Southeast 211 243 7,000  Level Boston Center
Sun 07:48:54 PM 42.0431 -74.1844 124° Southeast 218 251 7,000  Level Boston Center
Sun 07:49:54 PM 42.0108 -74.1167 123° Southeast 218 251 7,000 -50 Level Boston Center
Sun 07:50:54 PM 41.9658 -74.0483 132° Southeast 206 237 6,900 -50 Descending Boston Center
Sun 07:51:54 PM 41.9311 -74.0000 134° Southeast 200 230 6,900 -100 Level Boston Center
Sun 07:52:54 PM 41.8861 -73.9431 137° Southeast 200 230 6,700 -250 Descending Boston Center
Sun 07:53:54 PM 41.8492 -73.8978 138° Southeast 200 230 6,400 -350 Descending Boston Center
Sun 07:54:54 PM 41.8122 -73.8467 134° Southeast 200 230 6,000 -250 Descending Boston Center
Sun 07:55:54 PM 41.7650 -73.7872 137° Southeast 211 243 5,900 -50 Descending Boston Center
Sun 07:56:54 PM 41.7219 -73.7278 134° Southeast 211 243 5,900  Level Boston Center
Sun 07:57:54 PM 41.6850 -73.6800 136° Southeast 211 243 5,900 50 Level Boston Center
Sun 07:58:54 PM 41.6397 -73.6233 137° Southeast 211 243 6,000 50 Climbing Boston Center
Sun 07:59:54 PM 41.6047 -73.5756 134° Southeast 206 237 6,000  Level Boston Center
Sun 08:00:54 PM 41.5594 -73.5164 136° Southeast 206 237 6,000 -100 Level Boston Center
Sun 08:01:54 PM 41.5203 -73.4742 141° Southeast 206 237 5,800 -238 Descending Boston Center
Sun 08:04:16 PM 41.4500 -73.3167 121° Southeast 206 237 5,200 -297 Descending New York TRACON
Sun 08:05:16 PM 41.4167 -73.2500 124° Southeast 216 249 4,800 -400 Descending New York TRACON
Sun 08:06:16 PM 41.3833 -73.1667 118° Southeast 217 250 4,400 -550 Descending New York TRACON
Sun 08:07:16 PM 41.3500 -73.1000 124° Southeast 214 246 3,700 -750 Descending New York TRACON
Sun 08:08:16 PM 41.3167 -73.0667 143° Southeast 200 230 2,900 -750 Descending New York TRACON
Sun 08:09:16 PM 41.2667 -73.0500 166° South 168 193 2,200 -750 Descending New York TRACON
Sun 08:10:16 PM 41.2167 -73.0667 194° South 158 182 1,400 -650 Descending New York TRACON
Sun 08:11:16 PM 41.2000 -73.0833 217° Southwest 106 122 900 -500 Descending New York TRACON
Sun 08:13:00 PM 41.1500 -73.1167 143° Southeast  Level FlightAware Approximate
Sun 08:20:00 PM 41.1635 -73.1262 143° Southeast  Level Estimated

Login

Don't have an account? Register now (free) for customized features, flight alerts, and more!